Time;durP1;ratioP1;P1;durP2;ratioP2;P2;SDS_P1;SDS_P2;PMS_P1;PMS_P2;Temp;Humidity;BMP_temperature;BMP_pressure;BME280_temperature;BME280_humidity;BME280_pressure;Samples;Min_cycle;Max_cycle;Signal;HPM_P1;HPM_P2
2022/03/06 00:00:05;;;;;;;;;96.50;87.00;;;;;9.77;61.75;101881.16;2442173;28;45295;-82
2022/03/06 00:01:16;;;;;;;;;101.25;79.00;;;;;9.78;61.46;101884.63;2442365;28;45372;-82
2022/03/06 00:02:27;;;;;;;;;98.75;83.25;;;;;9.80;62.00;101885.53;2442302;28;45360;-83
2022/03/06 00:03:37;;;;;;;;;91.25;73.25;;;;;9.74;61.55;101873.31;2442436;28;45213;-83
2022/03/06 00:04:48;;;;;;;;;94.25;79.25;;;;;9.80;62.25;101882.91;2443948;28;45377;-82
2022/03/06 00:05:58;;;;;;;;;103.25;83.50;;;;;9.79;61.55;101887.28;2444074;27;45330;-81
2022/03/06 00:07:08;;;;;;;;;99.00;79.00;;;;;9.77;61.32;101880.28;2442134;28;45334;-84
2022/03/06 00:08:19;;;;;;;;;108.50;85.75;;;;;9.77;61.79;101878.53;2442523;28;45401;-83
2022/03/06 00:09:29;;;;;;;;;102.25;85.75;;;;;9.76;61.33;101875.91;2441980;28;45393;-82
2022/03/06 00:10:40;;;;;;;;;92.00;80.50;;;;;9.72;61.33;101877.72;2442197;28;45496;-83
2022/03/06 00:11:52;;;;;;;;;108.50;85.25;;;;;9.72;61.22;101871.59;2443109;28;45445;-82
2022/03/06 00:13:03;;;;;;;;;95.25;82.75;;;;;9.71;61.54;101875.97;2450006;28;45184;-82
2022/03/06 00:14:13;;;;;;;;;101.00;82.25;;;;;9.70;61.53;101871.63;2444823;27;45576;-82
2022/03/06 00:15:26;;;;;;;;;94.50;78.50;;;;;9.70;60.97;101878.63;2442181;28;45157;-81
2022/03/06 00:16:36;;;;;;;;;94.75;80.00;;;;;9.69;61.13;101883.00;2441741;28;45260;-82
2022/03/06 00:17:48;;;;;;;;;91.75;79.00;;;;;9.68;60.92;101883.88;2449436;28;45889;-82
2022/03/06 00:18:58;;;;;;;;;91.25;80.75;;;;;9.64;61.71;101883.06;2452028;27;46453;-76
2022/03/06 00:20:09;;;;;;;;;100.50;74.75;;;;;9.59;61.96;101891.84;2447700;28;45402;-76
2022/03/06 00:21:19;;;;;;;;;90.50;76.50;;;;;9.50;62.01;101893.69;2451479;28;46674;-76
2022/03/06 00:22:29;;;;;;;;;94.75;81.00;;;;;9.42;62.90;101891.16;2447163;28;45306;-76
2022/03/06 00:23:40;;;;;;;;;112.00;94.00;;;;;9.31;63.40;101898.25;2450173;28;45451;-76
2022/03/06 00:24:50;;;;;;;;;97.25;83.75;;;;;9.20;63.94;101891.34;2445178;28;45394;-76
2022/03/06 00:26:01;;;;;;;;;101.50;82.75;;;;;9.14;64.01;101898.38;2444585;27;46268;-76
2022/03/06 00:27:11;;;;;;;;;92.25;81.75;;;;;9.04;64.65;101887.13;2442232;28;45195;-76
2022/03/06 00:28:21;;;;;;;;;101.75;87.75;;;;;8.95;64.55;101895.91;2442287;28;45185;-76
2022/03/06 00:29:32;;;;;;;;;96.50;77.75;;;;;8.87;64.75;101894.22;2445738;28;45169;-76
2022/03/06 00:30:42;;;;;;;;;109.50;95.75;;;;;8.72;65.68;101897.81;2442881;28;47162;-76
2022/03/06 00:31:53;;;;;;;;;93.25;76.00;;;;;8.71;65.69;101892.59;2444088;28;45227;-76
2022/03/06 00:33:06;;;;;;;;;99.25;78.00;;;;;8.67;65.18;101896.97;2443347;28;47328;-76
2022/03/06 00:34:16;;;;;;;;;93.50;77.00;;;;;8.64;65.17;101894.38;2441054;28;45347;-76
2022/03/06 00:35:28;;;;;;;;;92.75;82.25;;;;;8.63;64.39;101898.75;2449333;28;47180;-76
2022/03/06 00:36:39;;;;;;;;;106.25;88.00;;;;;8.60;64.83;101896.13;2442266;28;45449;-76
2022/03/06 00:37:49;;;;;;;;;106.25;88.50;;;;;8.57;64.62;101896.09;2442297;27;45402;-76
2022/03/06 00:38:59;;;;;;;;;91.25;77.00;;;;;8.58;64.40;101899.59;2441975;28;45362;-76
2022/03/06 00:40:10;;;;;;;;;93.25;76.50;;;;;8.55;64.28;101893.50;2447969;28;45272;-76
2022/03/06 00:41:22;;;;;;;;;98.00;80.75;;;;;8.57;63.94;101900.50;2444945;28;45282;-76
2022/03/06 00:42:33;;;;;;;;;93.00;76.00;;;;;8.58;63.84;101895.28;2449036;28;45385;-76
2022/03/06 00:43:44;;;;;;;;;88.00;74.50;;;;;8.60;63.69;101897.88;2451953;28;45280;-76
2022/03/06 00:44:54;;;;;;;;;100.00;87.75;;;;;8.54;63.82;101891.75;2451533;27;45763;-76
2022/03/06 00:46:05;;;;;;;;;90.75;75.75;;;;;8.57;63.78;101896.09;2452133;27;45235;-76
2022/03/06 00:47:15;;;;;;;;;94.00;81.50;;;;;8.55;63.92;101901.38;2451723;27;45526;-76
2022/03/06 00:48:26;;;;;;;;;89.50;77.25;;;;;8.53;63.57;101897.88;2446435;27;44763;-76
2022/03/06 00:49:36;;;;;;;;;82.25;66.50;;;;;8.51;63.54;101897.03;2451459;28;45439;-76
2022/03/06 00:50:47;;;;;;;;;82.25;75.25;;;;;8.48;63.08;101893.53;2444965;27;45294;-76
2022/03/06 00:51:58;;;;;;;;;83.75;67.75;;;;;8.45;63.36;101897.06;2447134;28;47939;-76
2022/03/06 00:53:08;;;;;;;;;93.00;75.50;;;;;8.44;63.51;101897.94;2451027;28;44827;-76
2022/03/06 00:54:19;;;;;;;;;82.00;67.75;;;;;8.45;63.10;101899.66;2445821;27;45610;-76
2022/03/06 00:55:33;;;;;;;;;93.75;78.00;;;;;8.42;63.44;101895.31;2443478;28;45242;-79
2022/03/06 00:56:43;;;;;;;;;96.75;79.50;;;;;8.46;62.86;101897.94;2449815;28;46393;-76
2022/03/06 00:57:54;;;;;;;;;98.25;78.00;;;;;8.49;63.13;101898.78;2444271;28;45180;-76
2022/03/06 00:59:04;;;;;;;;;100.25;81.25;;;;;8.48;62.83;101897.03;2447396;27;45633;-77
2022/03/06 01:00:15;;;;;;;;;106.00;86.75;;;;;8.44;62.25;101901.41;2441791;28;45148;-77
2022/03/06 01:01:25;;;;;;;;;82.50;71.00;;;;;8.42;62.56;101897.94;2443641;28;46924;-76
2022/03/06 01:02:36;;;;;;;;;90.50;74.50;;;;;8.45;62.43;101897.06;2444899;28;45176;-76
2022/03/06 01:03:46;;;;;;;;;82.00;69.25;;;;;8.33;62.20;101895.38;2441790;28;45402;-76
2022/03/06 01:04:56;;;;;;;;;83.50;71.50;;;;;8.35;62.25;101901.47;2442033;28;45364;-76
2022/03/06 01:06:07;;;;;;;;;87.00;72.50;;;;;8.35;62.23;101901.47;2442574;28;46245;-76
2022/03/06 01:07:17;;;;;;;;;83.25;69.50;;;;;8.34;62.42;101899.75;2443075;28;45457;-77
2022/03/06 01:08:28;;;;;;;;;84.00;70.75;;;;;8.38;62.22;101897.97;2448811;28;45269;-77
2022/03/06 01:09:38;;;;;;;;;86.50;74.50;;;;;8.40;62.21;101906.69;2442147;28;45230;-82
2022/03/06 01:10:50;;;;;;;;;87.75;75.50;;;;;8.45;61.63;101904.91;2448440;28;47178;-91
2022/03/06 01:12:01;;;;;;;;;90.50;74.25;;;;;8.49;61.59;101898.78;2447218;28;44626;-88
2022/03/06 01:13:12;;;;;;;;;79.50;67.00;;;;;8.55;61.55;101901.38;2447600;27;47002;-88
2022/03/06 01:14:23;;;;;;;;;82.25;71.00;;;;;8.59;61.58;101906.63;2442430;28;45306;-87
2022/03/06 01:15:34;;;;;;;;;80.75;71.75;;;;;8.65;61.36;101904.84;2444402;28;45418;-87
2022/03/06 01:16:44;;;;;;;;;81.75;67.75;;;;;8.69;61.17;101903.09;2443552;28;45218;-88
2022/03/06 01:17:54;;;;;;;;;86.75;73.50;;;;;8.73;60.75;101902.19;2451573;27;46199;-84
2022/03/06 01:19:05;;;;;;;;;83.75;67.25;;;;;8.76;60.65;101903.91;2442668;27;45248;-84
2022/03/06 01:20:17;;;;;;;;;87.75;69.50;;;;;8.80;60.04;101904.75;2440659;28;47096;-85
2022/03/06 01:21:28;;;;;;;;;79.75;66.25;;;;;8.79;60.56;101906.50;2444152;28;45431;-85
2022/03/06 01:22:38;;;;;;;;;81.25;66.25;;;;;8.82;60.18;101905.59;2440985;28;48010;-85
2022/03/06 01:23:48;;;;;;;;;84.75;71.00;;;;;8.85;60.71;101902.97;2438851;28;45232;-85
2022/03/06 01:24:59;;;;;;;;;80.75;67.00;;;;;8.87;60.38;101902.06;2441154;28;46273;-85
2022/03/06 01:26:09;;;;;;;;;79.00;63.25;;;;;8.91;59.65;101904.69;2441964;28;44631;-85
2022/03/06 01:27:19;;;;;;;;;79.50;66.75;;;;;8.94;59.57;101900.28;2442423;28;45496;-85
2022/03/06 01:28:30;;;;;;;;;80.00;66.75;;;;;8.98;59.26;101906.38;2445659;27;45449;-84
2022/03/06 01:29:40;;;;;;;;;85.25;68.75;;;;;8.99;59.14;101908.09;2445951;28;45504;-85
2022/03/06 01:30:51;;;;;;;;;79.00;64.75;;;;;8.98;59.33;101898.50;2441914;28;44550;-84
2022/03/06 01:32:02;;;;;;;;;79.25;61.00;;;;;8.97;58.64;101899.38;2441637;28;45256;-84
2022/03/06 01:33:12;;;;;;;;;79.50;63.50;;;;;8.96;58.83;101892.41;2441742;28;45486;-84
2022/03/06 01:34:23;;;;;;;;;79.50;65.25;;;;;8.96;58.34;101890.63;2441686;28;45244;-84
2022/03/06 01:35:33;;;;;;;;;83.00;67.00;;;;;8.95;58.77;101895.91;2442584;27;45571;-84
2022/03/06 01:36:43;;;;;;;;;74.50;59.25;;;;;8.96;58.09;101895.03;2443432;27;45407;-84
2022/03/06 01:37:54;;;;;;;;;83.75;70.00;;;;;8.92;58.42;101896.78;2443861;28;45165;-84
2022/03/06 01:39:05;;;;;;;;;81.25;66.50;;;;;8.93;58.37;101897.66;2441579;28;45170;-84
2022/03/06 01:40:18;;;;;;;;;80.25;63.25;;;;;8.91;58.15;101899.44;2441783;28;45547;-84
2022/03/06 01:41:33;;;;;;;;;80.50;66.75;;;;;8.89;57.98;101892.44;2444785;28;46475;-84
2022/03/06 01:42:46;;;;;;;;;81.00;63.00;;;;;8.88;58.12;101900.34;2448229;28;44778;-85
2022/03/06 01:43:57;;;;;;;;;77.25;61.75;;;;;8.88;58.24;101900.34;2440771;28;47308;-83
2022/03/06 01:45:08;;;;;;;;;79.75;65.00;;;;;8.88;57.92;101893.34;2443100;28;45378;-84
2022/03/06 01:46:19;;;;;;;;;76.25;61.00;;;;;8.88;58.35;101901.22;2444845;28;45644;-84
2022/03/06 01:47:41;;;;;;;;;79.00;63.00;;;;;8.93;58.07;101901.16;2441921;28;45364;-84
2022/03/06 01:48:51;;;;;;;;;79.50;66.00;;;;;8.92;57.48;101899.41;2441364;28;46341;-85
2022/03/06 01:50:07;;;;;;;;;80.00;68.00;;;;;8.88;57.25;101895.97;2441627;28;44617;-85
2022/03/06 01:51:18;;;;;;;;;83.50;62.00;;;;;8.85;57.54;101895.97;2441370;28;47968;-84
2022/03/06 01:52:28;;;;;;;;;78.75;61.50;;;;;8.81;57.89;101893.38;2441643;28;45351;-84
2022/03/06 01:53:39;;;;;;;;;78.50;62.75;;;;;8.80;57.47;101896.88;2444106;28;46027;-84
2022/03/06 01:54:50;;;;;;;;;80.00;66.25;;;;;8.75;57.54;101895.16;2441729;28;45165;-84
2022/03/06 01:56:00;;;;;;;;;80.25;59.50;;;;;8.73;57.22;101894.31;2446758;28;48071;-85
2022/03/06 01:57:11;;;;;;;;;80.50;67.75;;;;;8.71;57.97;101893.47;2448501;28;45200;-84
2022/03/06 01:58:21;;;;;;;;;81.50;66.25;;;;;8.70;57.47;101896.94;2450558;28;45450;-83
2022/03/06 01:59:32;;;;;;;;;80.25;64.00;;;;;8.70;57.32;101902.19;2442245;27;45244;-84
2022/03/06 02:00:45;;;;;;;;;74.00;57.50;;;;;8.70;57.53;101901.31;2441303;28;45509;-84
2022/03/06 02:01:56;;;;;;;;;82.00;68.00;;;;;8.68;57.21;101901.34;2441791;28;45476;-84
2022/03/06 02:03:06;;;;;;;;;85.00;72.75;;;;;8.65;56.96;101898.72;2441494;28;45487;-84
2022/03/06 02:04:17;;;;;;;;;81.75;67.50;;;;;8.60;57.35;101904.00;2441420;28;45428;-84
2022/03/06 02:05:27;;;;;;;;;75.50;56.75;;;;;8.60;57.18;101905.75;2441268;28;46530;-84
2022/03/06 02:06:38;;;;;;;;;79.75;61.75;;;;;8.59;56.95;101901.41;2448264;28;45228;-84
2022/03/06 02:07:49;;;;;;;;;80.25;69.75;;;;;8.58;57.14;101904.84;2445652;28;45548;-84
2022/03/06 02:08:59;;;;;;;;;86.75;64.75;;;;;8.57;57.58;101903.13;2444310;27;45240;-84
2022/03/06 02:10:11;;;;;;;;;75.25;56.75;;;;;8.58;57.22;101902.22;2441361;28;46473;-85
2022/03/06 02:11:22;;;;;;;;;78.75;63.50;;;;;8.58;57.32;101902.22;2451253;28;45235;-84
2022/03/06 02:12:34;;;;;;;;;80.25;66.50;;;;;8.60;57.31;101905.75;2448297;27;45549;-84
2022/03/06 02:13:45;;;;;;;;;79.00;60.75;;;;;8.57;56.89;101901.34;2445231;27;44759;-84
2022/03/06 02:14:57;;;;;;;;;79.50;67.75;;;;;8.60;56.85;101905.75;2442319;28;47112;-84
2022/03/06 02:16:08;;;;;;;;;75.50;60.50;;;;;8.61;56.97;101907.50;2449913;28;45401;-85
2022/03/06 02:17:20;;;;;;;;;78.50;62.25;;;;;8.58;56.96;101897.91;2440607;28;47618;-85
2022/03/06 02:18:30;;;;;;;;;77.00;57.50;;;;;8.55;56.80;101904.00;2441168;28;44776;-85
2022/03/06 02:20:01;;;;;;;;;76.50;61.50;;;;;8.52;56.36;101905.78;2440988;28;46205;-85
2022/03/06 02:21:13;;;;;;;;;79.25;63.75;;;;;8.48;57.04;101897.03;2441585;27;45208;-85
2022/03/06 02:22:29;;;;;;;;;77.75;59.50;;;;;8.49;56.98;101898.78;2440506;28;48070;-85
2022/03/06 02:23:40;;;;;;;;;78.25;60.50;;;;;8.48;56.23;101902.28;2444195;28;45376;-85
2022/03/06 02:24:51;;;;;;;;;81.00;66.00;;;;;8.48;56.97;101897.03;2447957;28;46977;-85
2022/03/06 02:26:02;;;;;;;;;79.25;63.50;;;;;8.49;56.54;101903.16;2445736;28;45338;-85
2022/03/06 02:27:13;;;;;;;;;77.25;62.00;;;;;8.52;56.41;101903.16;2441401;28;45274;-85
2022/03/06 02:28:23;;;;;;;;;80.50;64.50;;;;;8.52;56.55;101903.16;2450149;28;44782;-85
2022/03/06 02:29:34;;;;;;;;;75.50;62.00;;;;;8.52;56.99;101897.91;2445330;27;46235;-87
2022/03/06 02:30:44;;;;;;;;;78.50;62.50;;;;;8.53;56.28;101899.63;2447899;27;45223;-85
2022/03/06 02:31:55;;;;;;;;;82.75;65.75;;;;;8.52;56.49;101893.50;2450178;28;47253;-86
2022/03/06 02:33:08;;;;;;;;;75.25;60.25;;;;;8.52;56.47;101898.75;2450724;28;44748;-84
2022/03/06 02:34:19;;;;;;;;;80.25;63.50;;;;;8.53;56.27;101900.50;2451026;27;46215;-84
2022/03/06 02:35:30;;;;;;;;;77.50;60.00;;;;;8.52;56.77;101901.38;2450797;27;44990;-84
2022/03/06 02:36:40;;;;;;;;;80.00;62.00;;;;;8.50;56.29;101895.28;2451148;27;45247;-85
2022/03/06 02:37:52;;;;;;;;;78.25;64.00;;;;;8.53;55.76;101902.25;2446537;27;45219;-85
2022/03/06 02:39:02;;;;;;;;;78.50;62.50;;;;;8.47;56.21;101900.53;2441142;28;45367;-84
2022/03/06 02:40:14;;;;;;;;;78.25;58.25;;;;;8.45;55.90;101891.81;2443011;28;44629;-84
2022/03/06 02:41:25;;;;;;;;;78.75;64.00;;;;;8.39;56.39;101886.63;2451103;27;45298;-84
2022/03/06 02:42:41;;;;;;;;;75.75;59.25;;;;;8.44;56.54;101905.81;2451050;27;45412;-84
2022/03/06 02:43:51;;;;;;;;;77.25;60.50;;;;;8.40;55.63;101896.19;2450844;28;46266;-85
2022/03/06 02:45:14;;;;;;;;;78.25;63.25;;;;;8.38;55.59;101901.47;2445707;27;44645;-83
2022/03/06 02:46:25;;;;;;;;;79.50;62.75;;;;;8.32;55.67;101898.88;2441259;28;45470;-83
2022/03/06 02:47:36;;;;;;;;;78.25;64.25;;;;;8.30;56.05;101893.63;2441301;28;45358;-86
2022/03/06 02:48:46;;;;;;;;;80.00;60.75;;;;;8.29;55.86;101893.66;2447388;28;45422;-86
2022/03/06 02:49:57;;;;;;;;;76.00;63.25;;;;;8.29;55.67;101891.91;2449103;27;45318;-87
2022/03/06 02:51:07;;;;;;;;;79.75;62.25;;;;;8.27;55.98;101903.28;2448202;28;45313;-87
2022/03/06 02:52:18;;;;;;;;;71.25;55.00;;;;;8.23;55.63;101902.41;2448296;27;45515;-87
2022/03/06 02:53:30;;;;;;;;;77.25;60.75;;;;;8.21;55.59;101907.66;2445656;27;45395;-87
2022/03/06 02:54:40;;;;;;;;;75.25;59.75;;;;;8.20;56.06;101902.41;2442516;28;45271;-87
2022/03/06 02:55:51;;;;;;;;;80.25;63.50;;;;;8.19;55.72;101908.53;2450921;27;46163;-85
2022/03/06 02:57:03;;;;;;;;;79.75;64.00;;;;;8.15;55.63;101905.03;2443422;28;45219;-85
2022/03/06 02:58:14;;;;;;;;;78.00;64.25;;;;;8.10;55.59;101902.44;2444419;28;46718;-86
2022/03/06 02:59:24;;;;;;;;;76.50;63.00;;;;;8.12;55.93;101905.06;2452225;27;45285;-85
2022/03/06 03:00:35;;;;;;;;;81.50;64.50;;;;;8.08;56.07;101898.09;2451183;27;46547;-84
2022/03/06 03:01:46;;;;;;;;;79.50;62.25;;;;;8.04;56.05;101902.47;2441096;28;45366;-86
2022/03/06 03:02:56;;;;;;;;;80.25;62.25;;;;;8.02;56.53;101899.00;2440159;28;46901;-85
2022/03/06 03:04:08;;;;;;;;;79.75;64.50;;;;;8.02;56.28;101901.63;2446792;28;44820;-88
2022/03/06 03:05:19;;;;;;;;;83.00;67.75;;;;;8.01;56.28;101909.47;2449570;28;47487;-87
2022/03/06 03:06:30;;;;;;;;;75.75;57.50;;;;;7.98;56.34;101897.25;2452796;27;45329;-86
2022/03/06 03:07:48;;;;;;;;;79.75;60.25;;;;;7.95;56.23;101903.38;2448252;28;46387;-85
2022/03/06 03:08:58;;;;;;;;;78.00;63.00;;;;;7.93;56.13;101906.84;2440863;28;45353;-85
2022/03/06 03:10:11;;;;;;;;;76.50;61.50;;;;;7.92;56.50;101899.91;2443522;28;45423;-85
2022/03/06 03:11:22;;;;;;;;;78.25;64.00;;;;;7.91;56.53;101899.03;2450060;28;45153;-84
2022/03/06 03:12:32;;;;;;;;;79.50;62.50;;;;;7.90;56.49;101901.66;2450216;28;46368;-84
2022/03/06 03:13:43;;;;;;;;;78.50;65.00;;;;;7.91;56.01;101899.03;2450811;27;45289;-83
2022/03/06 03:14:53;;;;;;;;;75.00;58.25;;;;;7.88;56.30;101907.75;2444992;28;45489;-85
2022/03/06 03:16:06;;;;;;;;;77.50;62.25;;;;;7.86;56.05;101901.66;2449280;27;44755;-87
2022/03/06 03:17:16;;;;;;;;;75.25;59.00;;;;;7.83;55.76;101914.75;2450738;27;45377;-86
2022/03/06 03:18:27;;;;;;;;;76.75;60.00;;;;;7.75;55.81;101906.91;2441090;28;44746;-87
2022/03/06 03:19:37;;;;;;;;;74.75;60.50;;;;;7.70;55.93;101906.06;2440012;28;47056;-86
2022/03/06 03:20:49;;;;;;;;;80.25;66.00;;;;;7.67;55.90;101908.69;2445576;28;45255;-87
2022/03/06 03:22:00;;;;;;;;;75.25;58.75;;;;;7.63;55.79;101907.81;2440974;28;45499;-86
2022/03/06 03:23:10;;;;;;;;;77.25;62.75;;;;;7.60;56.16;101907.84;2440919;28;45414;-86
2022/03/06 03:24:20;;;;;;;;;78.25;60.50;;;;;7.54;55.79;101907.81;2440007;28;48355;-86
2022/03/06 03:25:31;;;;;;;;;74.25;56.50;;;;;7.54;55.94;101918.28;2446637;28;45200;-87
2022/03/06 03:26:41;;;;;;;;;78.00;59.75;;;;;7.56;55.81;101923.50;2446174;28;45335;-87
2022/03/06 03:27:52;;;;;;;;;79.00;61.50;;;;;7.53;55.93;101916.56;2443233;27;44590;-87
2022/03/06 03:29:03;;;;;;;;;74.50;60.75;;;;;7.46;56.20;101912.22;2440823;28;45445;-87
2022/03/06 03:30:14;;;;;;;;;83.25;64.00;;;;;7.42;55.73;101920.06;2439843;28;45763;-85
2022/03/06 03:31:24;;;;;;;;;77.75;61.00;;;;;7.39;56.23;101913.94;2440441;28;46263;-85
2022/03/06 03:32:35;;;;;;;;;77.75;58.50;;;;;7.37;56.35;101911.34;2441043;28;44743;-84
2022/03/06 03:33:46;;;;;;;;;76.00;61.50;;;;;7.32;55.85;101911.34;2440742;28;45429;-84
2022/03/06 03:34:56;;;;;;;;;79.00;63.00;;;;;7.30;56.03;101920.94;2443212;28;45159;-83
2022/03/06 03:36:07;;;;;;;;;75.75;58.00;;;;;7.26;56.09;101913.94;2441912;27;45236;-85
2022/03/06 03:37:17;;;;;;;;;83.25;64.25;;;;;7.27;56.09;101914.81;2445793;27;45308;-86
2022/03/06 03:38:27;;;;;;;;;78.25;62.25;;;;;7.26;56.22;101924.41;2440719;28;46447;-86
2022/03/06 03:39:38;;;;;;;;;80.50;60.50;;;;;7.24;56.57;101918.31;2440084;28;45295;-86
2022/03/06 03:40:48;;;;;;;;;74.25;58.25;;;;;7.26;56.34;101916.56;2440228;28;45268;-82
2022/03/06 03:41:59;;;;;;;;;76.25;60.50;;;;;7.27;56.54;101920.94;2441020;28;44755;-83
2022/03/06 03:43:09;;;;;;;;;74.25;56.50;;;;;7.25;56.44;101920.06;2440866;28;45441;-84
2022/03/06 03:44:20;;;;;;;;;77.25;62.00;;;;;7.27;56.55;101920.03;2439785;28;45469;-84
2022/03/06 03:45:30;;;;;;;;;75.25;57.75;;;;;7.26;56.78;101921.78;2440180;28;45334;-86
2022/03/06 03:46:41;;;;;;;;;77.50;58.25;;;;;7.25;56.51;101914.81;2440181;28;45185;-85
2022/03/06 03:47:51;;;;;;;;;75.25;61.75;;;;;7.23;56.18;101920.94;2440246;28;46474;-85
2022/03/06 03:49:01;;;;;;;;;82.75;63.00;;;;;7.23;56.29;101916.56;2446269;28;46659;-84
2022/03/06 03:50:12;;;;;;;;;82.00;63.00;;;;;7.18;56.75;101920.94;2449606;28;47359;-82
2022/03/06 03:51:22;;;;;;;;;76.00;59.25;;;;;7.14;56.44;101913.94;2448418;28;44718;-82
2022/03/06 03:52:33;;;;;;;;;79.00;59.00;;;;;7.11;56.84;101920.06;2441637;27;45363;-82
2022/03/06 03:53:43;;;;;;;;;79.50;60.25;;;;;7.10;56.58;101926.16;2440813;28;44619;-82
2022/03/06 03:54:54;;;;;;;;;78.75;62.50;;;;;7.09;56.58;101924.38;2439940;28;47236;-82
2022/03/06 03:56:05;;;;;;;;;78.25;57.50;;;;;7.05;56.44;101931.38;2440400;28;45315;-82
2022/03/06 03:57:15;;;;;;;;;77.00;57.50;;;;;7.03;56.66;101921.78;2440716;28;45333;-82
2022/03/06 03:58:26;;;;;;;;;78.75;66.75;;;;;7.04;56.83;101918.28;2440859;28;45397;-82
2022/03/06 03:59:36;;;;;;;;;74.75;58.00;;;;;7.04;56.33;101926.13;2440350;28;45350;-81
2022/03/06 04:00:56;;;;;;;;;76.75;58.50;;;;;7.03;56.65;101924.41;2446456;28;45450;-81
2022/03/06 04:02:07;;;;;;;;;78.50;63.00;;;;;7.08;56.80;101936.63;2440303;28;46480;-81
2022/03/06 04:03:17;;;;;;;;;79.75;64.00;;;;;7.05;57.03;101930.50;2440223;28;45503;-81
2022/03/06 04:04:28;;;;;;;;;79.75;62.25;;;;;7.04;56.71;101932.22;2442727;28;46266;-82
2022/03/06 04:05:39;;;;;;;;;82.00;61.50;;;;;7.04;56.93;101928.75;2450551;28;45365;-84
2022/03/06 04:06:50;;;;;;;;;76.25;58.50;;;;;7.06;56.57;101935.72;2459504;27;47920;-88
2022/03/06 04:08:00;;;;;;;;;70.25;55.50;;;;;7.09;56.50;101934.84;2450144;28;45248;-88
2022/03/06 04:09:11;;;;;;;;;78.25;61.25;;;;;7.08;56.53;101941.84;2450473;28;46896;-88
2022/03/06 04:10:21;;;;;;;;;79.00;62.00;;;;;7.05;56.32;101935.72;2450345;28;44616;-86
2022/03/06 04:11:31;;;;;;;;;80.25;57.50;;;;;6.98;56.91;101935.72;2444791;27;45614;-86
2022/03/06 04:12:42;;;;;;;;;81.75;62.50;;;;;6.97;56.45;101941.81;2449810;27;45440;-86
2022/03/06 04:13:52;;;;;;;;;78.50;63.25;;;;;6.96;56.97;101947.91;2451874;27;45294;-86
2022/03/06 04:15:03;;;;;;;;;81.75;67.00;;;;;6.93;57.04;101942.69;2442635;27;45283;-86
2022/03/06 04:16:13;;;;;;;;;77.50;58.00;;;;;6.87;57.02;101942.66;2446948;28;45378;-86
2022/03/06 04:17:24;;;;;;;;;74.50;53.50;;;;;6.83;57.16;101943.53;2451070;27;45219;-86
2022/03/06 04:18:34;;;;;;;;;81.25;61.00;;;;;6.80;57.13;101946.13;2442290;28;46528;-85
2022/03/06 04:19:44;;;;;;;;;79.25;60.50;;;;;6.75;57.09;101939.16;2449168;28;45125;-86
2022/03/06 04:20:55;;;;;;;;;81.50;65.00;;;;;6.77;57.44;101946.13;2448577;27;46123;-86
2022/03/06 04:22:05;;;;;;;;;78.50;62.00;;;;;6.75;57.50;101947.00;2446349;28;45211;-84
2022/03/06 04:23:16;;;;;;;;;83.50;65.25;;;;;6.75;57.08;101952.22;2442407;27;45433;-85
2022/03/06 04:24:26;;;;;;;;;81.75;63.50;;;;;6.73;57.13;101947.88;2442219;28;45425;-85
2022/03/06 04:25:37;;;;;;;;;77.00;62.75;;;;;6.75;57.15;101951.34;2449594;28;45718;-85
2022/03/06 04:26:47;;;;;;;;;77.00;61.75;;;;;6.72;57.48;101949.59;2441546;28;45330;-85
2022/03/06 04:27:57;;;;;;;;;78.75;61.75;;;;;6.68;57.57;101942.63;2441532;28;45453;-85
2022/03/06 04:29:08;;;;;;;;;77.00;57.00;;;;;6.69;57.15;101957.41;2443801;28;45137;-87
2022/03/06 04:30:19;;;;;;;;;79.25;59.25;;;;;6.71;57.28;101950.47;2451078;27;46451;-87
2022/03/06 04:31:29;;;;;;;;;81.75;61.75;;;;;6.72;57.38;101965.28;2442335;28;45262;-88
2022/03/06 04:32:40;;;;;;;;;79.75;62.00;;;;;6.65;57.37;101950.44;2443706;28;46291;-88
2022/03/06 04:33:50;;;;;;;;;74.50;62.00;;;;;6.63;57.28;101960.03;2441339;28;45283;-88
2022/03/06 04:35:00;;;;;;;;;79.25;61.25;;;;;6.60;57.58;101965.22;2441317;28;46570;-84
2022/03/06 04:36:11;;;;;;;;;77.25;58.50;;;;;6.56;57.69;101959.13;2449820;28;45205;-84
2022/03/06 04:37:21;;;;;;;;;81.00;65.00;;;;;6.58;57.45;101966.97;2443549;28;46400;-83
2022/03/06 04:38:32;;;;;;;;;78.50;61.00;;;;;6.54;57.46;101960.88;2442215;28;45231;-84
2022/03/06 04:39:42;;;;;;;;;82.50;63.75;;;;;6.57;58.06;101965.25;2441291;28;47004;-84
2022/03/06 04:40:53;;;;;;;;;77.75;61.00;;;;;6.56;57.71;101958.25;2441675;28;45294;-84
2022/03/06 04:42:04;;;;;;;;;77.25;61.00;;;;;6.59;58.06;101969.56;2444366;28;45940;-85
2022/03/06 04:43:14;;;;;;;;;80.00;63.75;;;;;6.59;57.93;101964.34;2451240;28;45240;-85
2022/03/06 04:44:25;;;;;;;;;79.25;63.25;;;;;6.60;57.71;101965.22;2441851;28;46368;-84
2022/03/06 04:45:35;;;;;;;;;83.25;63.50;;;;;6.61;57.45;101972.22;2447644;28;44826;-86
2022/03/06 04:46:49;;;;;;;;;77.00;57.75;;;;;6.60;57.77;101965.22;2445424;27;45334;-86
2022/03/06 04:47:59;;;;;;;;;81.25;63.00;;;;;6.63;57.98;101967.88;2442307;28;45437;-86
2022/03/06 04:49:09;;;;;;;;;78.75;57.25;;;;;6.57;57.37;101965.25;2441089;28;47302;-86
2022/03/06 04:50:20;;;;;;;;;75.75;59.75;;;;;6.58;57.64;101970.47;2441425;28;45229;-84
2022/03/06 04:51:30;;;;;;;;;80.00;62.75;;;;;6.56;58.13;101973.94;2441963;28;45262;-85
2022/03/06 04:52:41;;;;;;;;;80.00;61.75;;;;;6.54;57.40;101976.56;2449483;28;44733;-88
2022/03/06 04:53:51;;;;;;;;;77.50;58.75;;;;;6.52;57.30;101966.06;2443633;28;46409;-88
2022/03/06 04:55:02;;;;;;;;;83.75;68.00;;;;;6.51;58.19;101966.97;2442529;28;45184;-87
2022/03/06 04:56:13;;;;;;;;;79.00;58.75;;;;;6.53;57.99;101969.56;2446768;27;46539;-87
2022/03/06 04:57:23;;;;;;;;;81.75;62.50;;;;;6.52;57.92;101967.81;2451407;27;44577;-86
2022/03/06 04:58:33;;;;;;;;;77.50;61.25;;;;;6.52;58.03;101971.31;2445293;27;45222;-86
2022/03/06 04:59:44;;;;;;;;;76.75;61.25;;;;;6.52;57.77;101973.03;2441666;28;44613;-86
2022/03/06 05:00:54;;;;;;;;;80.00;63.50;;;;;6.54;57.82;101979.16;2442032;28;45213;-85
2022/03/06 05:02:05;;;;;;;;;81.75;63.75;;;;;6.51;58.13;101969.56;2441189;28;45308;-85
2022/03/06 05:03:15;;;;;;;;;82.00;64.50;;;;;6.50;58.16;101974.78;2438868;28;47094;-85
2022/03/06 05:04:25;;;;;;;;;80.00;61.50;;;;;6.46;58.13;101975.63;2449621;28;45287;-87
2022/03/06 05:05:36;;;;;;;;;80.50;63.50;;;;;6.43;58.29;101970.41;2451587;27;45362;-88
2022/03/06 05:06:46;;;;;;;;;79.50;66.50;;;;;6.38;58.42;101975.59;2445754;28;45321;-91
2022/03/06 05:07:57;;;;;;;;;82.25;65.50;;;;;6.37;58.25;101979.94;2445684;28;45316;-90
2022/03/06 05:09:07;;;;;;;;;84.00;67.25;;;;;6.31;58.54;101972.09;2451925;27;44692;-91
2022/03/06 05:10:18;;;;;;;;;84.25;63.75;;;;;6.27;58.30;101968.56;2442120;28;47362;-91
2022/03/06 05:11:28;;;;;;;;;77.00;57.25;;;;;6.28;58.39;101977.28;2445395;28;45460;-91
2022/03/06 05:12:41;;;;;;;;;75.75;62.00;;;;;6.24;58.27;101979.03;2441962;28;46647;-91
2022/03/06 05:13:51;;;;;;;;;78.25;65.25;;;;;6.26;58.32;101979.91;2450172;28;45243;-90
2022/03/06 05:15:03;;;;;;;;;83.75;65.75;;;;;6.21;58.47;101979.00;2436407;28;48425;-90
2022/03/06 05:16:13;;;;;;;;;77.00;58.25;;;;;6.21;58.46;101981.63;2446226;28;45279;-93
2022/03/06 05:17:23;;;;;;;;;75.25;60.25;;;;;6.16;58.85;101980.72;2446083;28;46653;-89
2022/03/06 05:18:34;;;;;;;;;76.50;58.25;;;;;6.15;59.17;101981.59;2442962;28;45228;-90
2022/03/06 05:19:44;;;;;;;;;82.00;63.25;;;;;6.14;58.81;101982.44;2442089;28;45631;-87
2022/03/06 05:20:54;;;;;;;;;79.50;63.75;;;;;6.12;58.76;101986.78;2445622;28;45157;-89
2022/03/06 05:22:05;;;;;;;;;81.00;63.75;;;;;6.13;58.84;101985.91;2451871;27;46518;-91
2022/03/06 05:23:17;;;;;;;;;76.75;59.25;;;;;6.13;58.86;101983.28;2451805;27;45395;-87
2022/03/06 05:24:28;;;;;;;;;80.50;60.25;;;;;6.11;58.95;101987.63;2451536;28;45425;-87
2022/03/06 05:25:38;;;;;;;;;77.50;61.25;;;;;6.05;58.94;101978.03;2451613;27;45225;-87